Brownvale, Canada
Current Conditions -  °F | °C
As of 12:00 PM on Friday 24 Oct 2014 (Local Time) from CYPE Reporting Station
Broken Clouds Broken Clouds  
Wind Chill: 30°   Ceiling: 4000
Heat Index: 34°   Visibility: 15mi
Dew Point: 32°   Wind: 5mph
Humidity: 93%   Direction: 220°SW
Pressure: 29.8"   Gusts: NA
Location:  56.12°N, 117.9°W
Report Text: CYPE 241800Z 22004KT 15SM FEW005 BKN040 01/M00 A2980 RMK SF1SC6 SLP119
Loading
Personal Weather Stations






























Interactive Weather Map
Tropical Storm Tracking
New forecast layout! Learn more

10-Day Weather Forecast

Advertisements
Track Severe Weather on mobile